Broadview, Illinois
Current Conditions -  °F | °C
As of 7:53 PM on Saturday 25 Oct 2014 (Local Time) from KMDW Reporting Station
Clear Clear  
Wind Chill: 64°   Ceiling: Unl
Heat Index: 64°   Visibility: 10mi
Dew Point: 29°   Wind: 10mph
Humidity: 27%   Direction: 280°W
Pressure: 29.94"   Gusts: NA
Location:  41.8566°N, 87.8552°W
Report Text: KMDW 260053Z 28009KT 10SM CLR 18/M02 A2994 RMK AO2 SLP137 T01781017
Loading
Personal Weather Stations






























Interactive Weather Map
Tropical Storm Tracking
New forecast layout! Learn more

10-Day Weather Forecast

Advertisements
Track Severe Weather on mobile